Time;durP1;ratioP1;P1;durP2;ratioP2;P2;SDS_P1;SDS_P2;PMS_P1;PMS_P2;Temp;Humidity;BMP_temperature;BMP_pressure;BME280_temperature;BME280_humidity;BME280_pressure;Samples;Min_cycle;Max_cycle;Signal;HPM_P1;HPM_P2
2024/02/04 00:01:52;;;;;;;;;;;16.10;69.80;;;;;;5092567;28;19917;-71
2024/02/04 00:04:18;;;;;;;;;;;16.00;69.90;;;;;;5093216;28;19908;-71
2024/02/04 00:06:44;;;;;;;;;;;16.10;69.70;;;;;;5091146;28;20393;-72
2024/02/04 00:09:10;;;;;;;;;;;16.00;70.00;;;;;;5092739;28;20056;-72
2024/02/04 00:11:35;;;;;;;;;;;16.10;70.10;;;;;;5092688;28;19908;-71
2024/02/04 00:14:02;;;;;;;;;;;16.10;69.90;;;;;;5092668;28;20281;-71
2024/02/04 00:16:28;;;;;;;;;;;16.20;70.10;;;;;;5092531;28;19915;-71
2024/02/04 00:18:54;;;;;;;;;;;16.00;69.80;;;;;;5092701;28;19908;-71
2024/02/04 00:21:20;;;;;;;;;;;16.10;70.20;;;;;;5092255;28;19970;-71
2024/02/04 00:23:45;;;;;;;;;;;16.10;70.20;;;;;;5092219;28;19912;-71
2024/02/04 00:26:11;;;;;;;;;;;16.10;70.40;;;;;;5092561;28;20001;-71
2024/02/04 00:28:36;;;;;;;;;;;16.10;70.30;;;;;;5092270;28;19912;-71
2024/02/04 00:31:01;;;;;;;;;;;16.10;70.30;;;;;;5092248;28;19953;-71
2024/02/04 00:33:27;;;;;;;;;;;16.10;70.60;;;;;;5092928;28;19999;-71
2024/02/04 00:35:52;;;;;;;;;;;16.10;70.30;;;;;;5092234;28;20370;-71
2024/02/04 00:38:18;;;;;;;;;;;16.10;70.20;;;;;;5092132;28;19955;-72
2024/02/04 00:40:43;;;;;;;;;;;16.10;70.40;;;;;;5091897;28;20022;-71
2024/02/04 00:43:09;;;;;;;;;;;16.10;70.60;;;;;;5092202;28;19961;-71
2024/02/04 00:45:34;;;;;;;;;;;16.10;70.80;;;;;;5092185;28;19949;-71
2024/02/04 00:48:00;;;;;;;;;;;16.20;70.40;;;;;;5092435;28;20375;-71
2024/02/04 00:50:25;;;;;;;;;;;16.20;70.00;;;;;;5091998;28;19909;-71
2024/02/04 00:52:53;;;;;;;;;;;16.10;70.50;;;;;;5092097;28;20224;-72
2024/02/04 00:55:19;;;;;;;;;;;16.20;70.30;;;;;;5092184;28;19908;-71
2024/02/04 00:57:44;;;;;;;;;;;16.20;70.40;;;;;;5091915;28;20413;-71
2024/02/04 01:00:10;;;;;;;;;;;16.10;70.30;;;;;;5094720;28;19920;-71
2024/02/04 01:02:36;;;;;;;;;;;16.20;68.60;;;;;;5095953;28;20018;-72
2024/02/04 01:05:01;;;;;;;;;;;16.20;70.50;;;;;;5095940;28;19977;-72
2024/02/04 01:07:27;;;;;;;;;;;16.20;70.40;;;;;;5095479;28;19962;-71
2024/02/04 01:09:52;;;;;;;;;;;16.10;70.20;;;;;;5095437;28;19955;-71
2024/02/04 01:12:17;;;;;;;;;;;16.20;70.50;;;;;;5095413;28;20285;-71
2024/02/04 01:14:43;;;;;;;;;;;16.10;70.20;;;;;;5095366;28;19915;-71
2024/02/04 01:17:08;;;;;;;;;;;16.20;70.20;;;;;;5095291;28;20404;-71
2024/02/04 01:19:34;;;;;;;;;;;16.20;70.30;;;;;;5095133;28;19915;-71
2024/02/04 01:21:59;;;;;;;;;;;16.10;70.20;;;;;;5095095;28;20014;-71
2024/02/04 01:24:25;;;;;;;;;;;16.20;70.50;;;;;;5095226;28;19995;-72
2024/02/04 01:26:50;;;;;;;;;;;16.20;70.30;;;;;;5095377;28;19908;-71
2024/02/04 01:29:16;;;;;;;;;;;16.20;69.90;;;;;;5095659;28;19908;-71
2024/02/04 01:31:42;;;;;;;;;;;16.20;70.50;;;;;;5095059;28;19908;-72
2024/02/04 01:34:07;;;;;;;;;;;16.30;70.20;;;;;;5094925;28;19908;-72
2024/02/04 01:36:33;;;;;;;;;;;16.10;70.30;;;;;;5095008;28;20007;-71
2024/02/04 01:38:58;;;;;;;;;;;16.20;70.30;;;;;;5094931;28;20259;-72
2024/02/04 01:41:26;;;;;;;;;;;16.20;70.20;;;;;;5094657;28;19994;-76
2024/02/04 01:43:52;;;;;;;;;;;16.20;70.40;;;;;;5094838;28;20050;-76
2024/02/04 01:46:17;;;;;;;;;;;16.20;71.00;;;;;;5094739;28;19966;-76
2024/02/04 01:48:43;;;;;;;;;;;16.20;70.00;;;;;;5095086;28;19916;-76
2024/02/04 01:51:09;;;;;;;;;;;16.20;69.90;;;;;;5094602;28;19938;-76
2024/02/04 01:53:36;;;;;;;;;;;16.20;70.00;;;;;;5094725;28;19908;-76
2024/02/04 01:56:01;;;;;;;;;;;16.20;70.50;;;;;;5094539;28;19912;-77
2024/02/04 01:58:27;;;;;;;;;;;16.20;70.00;;;;;;5095065;28;19908;-71
2024/02/04 02:00:52;;;;;;;;;;;16.20;70.10;;;;;;5094484;28;19916;-71
2024/02/04 02:03:19;;;;;;;;;;;16.10;70.20;;;;;;5094476;28;19930;-71
2024/02/04 02:05:45;;;;;;;;;;;16.20;70.20;;;;;;5094389;28;19978;-71
2024/02/04 02:08:13;;;;;;;;;;;16.20;70.10;;;;;;5094291;28;19912;-72
2024/02/04 02:10:42;;;;;;;;;;;16.30;65.90;;;;;;5094068;28;19960;-71
2024/02/04 02:13:14;;;;;;;;;;;16.20;70.00;;;;;;5094278;28;19947;-71
2024/02/04 02:15:43;;;;;;;;;;;16.10;65.60;;;;;;5094263;28;19913;-71
2024/02/04 02:18:21;;;;;;;;;;;16.20;70.20;;;;;;5094189;28;20327;-72
2024/02/04 02:20:59;;;;;;;;;;;16.40;65.80;;;;;;5094122;28;19916;-71
2024/02/04 02:23:31;;;;;;;;;;;16.20;65.70;;;;;;5094150;28;19952;-71
2024/02/04 02:25:58;;;;;;;;;;;16.10;65.60;;;;;;5094526;28;20325;-71
2024/02/04 02:28:23;;;;;;;;;;;16.50;70.40;;;;;;5093948;28;19908;-71
2024/02/04 02:30:49;;;;;;;;;;;16.20;70.00;;;;;;5093883;28;19912;-71
2024/02/04 02:33:15;;;;;;;;;;;16.10;70.00;;;;;;5093796;28;19908;-71
2024/02/04 02:35:40;;;;;;;;;;;16.10;69.90;;;;;;5093891;28;19912;-71
2024/02/04 02:38:15;;;;;;;;;;;16.20;69.60;;;;;;5093787;28;19908;-72
2024/02/04 02:40:48;;;;;;;;;;;16.10;65.70;;;;;;5093596;28;19924;-71
2024/02/04 02:43:14;;;;;;;;;;;16.20;65.60;;;;;;5093682;28;19908;-71
2024/02/04 02:45:41;;;;;;;;;;;16.20;70.00;;;;;;5093696;28;19915;-71
2024/02/04 02:48:08;;;;;;;;;;;16.10;70.10;;;;;;5093733;28;19916;-71
2024/02/04 02:50:34;;;;;;;;;;;16.20;69.70;;;;;;5093739;28;19908;-71
2024/02/04 02:52:59;;;;;;;;;;;16.20;70.20;;;;;;5093506;28;19912;-71
2024/02/04 02:55:25;;;;;;;;;;;16.10;69.80;;;;;;5094030;28;19957;-71
2024/02/04 02:57:50;;;;;;;;;;;16.20;70.00;;;;;;5093465;28;19912;-71
2024/02/04 03:00:16;;;;;;;;;;;16.20;70.10;;;;;;5093470;28;20019;-72
2024/02/04 03:02:41;;;;;;;;;;;16.20;69.40;;;;;;5093313;28;19952;-71
2024/02/04 03:05:07;;;;;;;;;;;16.20;70.30;;;;;;5091999;28;19908;-72
2024/02/04 03:07:33;;;;;;;;;;;16.10;69.60;;;;;;5093468;28;19957;-71
2024/02/04 03:09:58;;;;;;;;;;;16.10;70.60;;;;;;5093172;28;19908;-72
2024/02/04 03:12:24;;;;;;;;;;;16.10;70.10;;;;;;5093106;28;19914;-71
2024/02/04 03:14:49;;;;;;;;;;;16.30;70.30;;;;;;5093096;28;20326;-72
2024/02/04 03:17:15;;;;;;;;;;;16.20;70.10;;;;;;5093189;28;19943;-71
2024/02/04 03:19:40;;;;;;;;;;;16.30;70.50;;;;;;5093120;28;19912;-72
2024/02/04 03:22:06;;;;;;;;;;;16.30;70.30;;;;;;5092349;28;19912;-71
2024/02/04 03:24:31;;;;;;;;;;;16.20;70.30;;;;;;5093756;28;19915;-71
2024/02/04 03:26:57;;;;;;;;;;;16.20;70.30;;;;;;5093023;28;19996;-72
2024/02/04 03:29:22;;;;;;;;;;;16.30;70.30;;;;;;5092918;28;19915;-71
2024/02/04 03:31:49;;;;;;;;;;;16.10;70.20;;;;;;5093129;28;19908;-71
2024/02/04 03:34:14;;;;;;;;;;;16.30;70.60;;;;;;5092984;28;19908;-72
2024/02/04 03:36:40;;;;;;;;;;;16.20;70.50;;;;;;5093138;28;19990;-71
2024/02/04 03:39:05;;;;;;;;;;;16.20;70.60;;;;;;5092714;28;19995;-71
2024/02/04 03:41:31;;;;;;;;;;;16.20;70.40;;;;;;5092720;28;19928;-72
2024/02/04 03:43:58;;;;;;;;;;;16.20;67.40;;;;;;5092309;28;20309;-72
2024/02/04 03:46:24;;;;;;;;;;;16.20;70.40;;;;;;5092682;28;19960;-72
2024/02/04 03:48:49;;;;;;;;;;;16.20;70.20;;;;;;5092713;28;19909;-71
2024/02/04 03:51:16;;;;;;;;;;;16.20;69.70;;;;;;5093086;28;19909;-71
2024/02/04 03:53:41;;;;;;;;;;;16.20;70.60;;;;;;5092401;28;20327;-71
2024/02/04 03:56:07;;;;;;;;;;;16.30;70.30;;;;;;5092518;28;19962;-71
2024/02/04 03:58:32;;;;;;;;;;;16.20;70.50;;;;;;5092553;28;19915;-71
2024/02/04 04:00:58;;;;;;;;;;;16.00;70.00;;;;;;5092397;28;20057;-71
2024/02/04 04:03:24;;;;;;;;;;;16.20;70.00;;;;;;5092487;28;19931;-71
2024/02/04 04:05:50;;;;;;;;;;;16.20;70.40;;;;;;5092520;28;20378;-71
2024/02/04 04:08:16;;;;;;;;;;;16.20;70.40;;;;;;5092400;28;19941;-71
2024/02/04 04:10:41;;;;;;;;;;;16.20;70.00;;;;;;5092331;28;19915;-71
2024/02/04 04:13:07;;;;;;;;;;;16.20;69.90;;;;;;5092344;28;20330;-71
2024/02/04 04:15:32;;;;;;;;;;;16.20;70.10;;;;;;5092433;28;20362;-71
2024/02/04 04:17:58;;;;;;;;;;;16.20;70.00;;;;;;5092453;28;19916;-70
2024/02/04 04:20:23;;;;;;;;;;;16.20;70.10;;;;;;5093065;28;19920;-71
2024/02/04 04:22:49;;;;;;;;;;;16.20;70.00;;;;;;5092281;28;20285;-71
2024/02/04 04:25:14;;;;;;;;;;;16.20;70.00;;;;;;5092308;28;20002;-71
2024/02/04 04:27:40;;;;;;;;;;;16.20;69.90;;;;;;5092213;28;20436;-72
2024/02/04 04:30:05;;;;;;;;;;;16.20;70.00;;;;;;5092207;28;19908;-71
2024/02/04 04:32:32;;;;;;;;;;;16.20;68.40;;;;;;5092536;28;19908;-72
2024/02/04 04:34:57;;;;;;;;;;;16.30;69.90;;;;;;5096072;28;19914;-71
2024/02/04 04:37:23;;;;;;;;;;;16.20;69.80;;;;;;5095974;28;19999;-72
2024/02/04 04:39:48;;;;;;;;;;;16.20;69.70;;;;;;5095707;28;20008;-71
2024/02/04 04:42:14;;;;;;;;;;;16.20;69.90;;;;;;5095936;28;19940;-72
2024/02/04 04:44:40;;;;;;;;;;;16.30;69.90;;;;;;5095932;28;19973;-72
2024/02/04 04:47:05;;;;;;;;;;;16.10;69.80;;;;;;5096158;28;19935;-71
2024/02/04 04:49:31;;;;;;;;;;;16.20;69.40;;;;;;5096323;28;20371;-72
2024/02/04 04:51:56;;;;;;;;;;;16.20;69.70;;;;;;5095916;28;19908;-72
2024/02/04 04:54:22;;;;;;;;;;;16.20;69.70;;;;;;5096075;28;20036;-71
2024/02/04 04:56:47;;;;;;;;;;;16.20;69.20;;;;;;5095919;28;19995;-72
2024/02/04 04:59:14;;;;;;;;;;;16.20;69.80;;;;;;5095773;28;19915;-71
2024/02/04 05:01:49;;;;;;;;;;;16.20;69.80;;;;;;5095708;28;19962;-71
2024/02/04 05:04:15;;;;;;;;;;;16.20;65.60;;;;;;5095660;28;19908;-71
2024/02/04 05:06:41;;;;;;;;;;;16.20;69.90;;;;;;5095666;28;19912;-71
2024/02/04 05:09:06;;;;;;;;;;;16.10;69.60;;;;;;5095780;28;19915;-71
2024/02/04 05:11:32;;;;;;;;;;;16.20;69.80;;;;;;5095532;28;20351;-71
2024/02/04 05:13:57;;;;;;;;;;;16.10;69.80;;;;;;5095645;28;19908;-71
2024/02/04 05:16:23;;;;;;;;;;;16.20;69.50;;;;;;5095940;28;19940;-71
2024/02/04 05:18:49;;;;;;;;;;;16.10;69.70;;;;;;5095362;28;19908;-72
2024/02/04 05:21:14;;;;;;;;;;;16.10;69.70;;;;;;5095258;28;19989;-72
2024/02/04 05:23:39;;;;;;;;;;;16.30;70.60;;;;;;5095335;28;19965;-71
2024/02/04 05:26:05;;;;;;;;;;;16.10;69.80;;;;;;5095272;28;19919;-71
2024/02/04 05:28:31;;;;;;;;;;;16.40;69.70;;;;;;5095366;28;19961;-71
2024/02/04 05:30:56;;;;;;;;;;;16.10;69.80;;;;;;5095318;28;19908;-71
2024/02/04 05:33:22;;;;;;;;;;;16.30;69.60;;;;;;5095056;28;19912;-71
2024/02/04 05:35:47;;;;;;;;;;;16.10;69.60;;;;;;5095170;28;19915;-71
2024/02/04 05:38:13;;;;;;;;;;;16.10;69.80;;;;;;5095009;28;19961;-71
2024/02/04 05:40:38;;;;;;;;;;;16.10;69.70;;;;;;5094782;28;20343;-71
2024/02/04 05:43:07;;;;;;;;;;;16.10;69.60;;;;;;5094919;28;20337;-72
2024/02/04 05:45:32;;;;;;;;;;;16.10;69.70;;;;;;5094776;28;19961;-76
2024/02/04 05:47:58;;;;;;;;;;;16.10;69.70;;;;;;5094919;28;19908;-76
2024/02/04 05:50:23;;;;;;;;;;;16.10;69.30;;;;;;5094784;28;19908;-76
2024/02/04 05:52:49;;;;;;;;;;;16.10;69.80;;;;;;5094755;28;19908;-76
2024/02/04 05:55:15;;;;;;;;;;;16.10;69.70;;;;;;5094695;28;20394;-76
2024/02/04 05:57:40;;;;;;;;;;;16.10;69.80;;;;;;5094713;28;19912;-76
2024/02/04 06:00:07;;;;;;;;;;;16.10;69.80;;;;;;5094874;28;20010;-76
2024/02/04 06:02:33;;;;;;;;;;;16.10;68.30;;;;;;5094698;28;19908;-77
2024/02/04 06:04:58;;;;;;;;;;;16.10;69.80;;;;;;5094869;28;19915;-76
2024/02/04 06:07:24;;;;;;;;;;;16.40;69.80;;;;;;5094549;28;19908;-76
2024/02/04 06:09:49;;;;;;;;;;;16.00;69.60;;;;;;5094471;28;19909;-76
2024/02/04 06:12:15;;;;;;;;;;;16.10;69.60;;;;;;5094419;28;19912;-76
2024/02/04 06:14:40;;;;;;;;;;;16.10;69.80;;;;;;5094905;28;19966;-76
2024/02/04 06:17:08;;;;;;;;;;;16.10;69.90;;;;;;5094292;28;19908;-77
2024/02/04 06:19:36;;;;;;;;;;;16.10;69.60;;;;;;5094267;28;19912;-76
2024/02/04 06:22:01;;;;;;;;;;;16.10;65.50;;;;;;5094128;28;19916;-76
2024/02/04 06:24:27;;;;;;;;;;;16.10;69.40;;;;;;5094148;28;20392;-76
2024/02/04 06:26:52;;;;;;;;;;;16.10;69.70;;;;;;5094100;28;19908;-71
2024/02/04 06:29:18;;;;;;;;;;;16.10;69.70;;;;;;5094014;28;19962;-72
2024/02/04 06:31:44;;;;;;;;;;;16.10;69.70;;;;;;5093980;28;19912;-72
2024/02/04 06:34:09;;;;;;;;;;;16.10;69.70;;;;;;5094148;28;19963;-71
2024/02/04 06:36:35;;;;;;;;;;;16.10;69.60;;;;;;5092522;28;20286;-71
2024/02/04 06:39:00;;;;;;;;;;;16.10;69.80;;;;;;5093849;28;19912;-72
2024/02/04 06:41:26;;;;;;;;;;;16.10;69.80;;;;;;5093381;28;20298;-72
2024/02/04 06:43:51;;;;;;;;;;;16.10;69.70;;;;;;5094086;28;19947;-72
2024/02/04 06:46:23;;;;;;;;;;;16.10;70.20;;;;;;5093608;28;20367;-71
2024/02/04 06:48:49;;;;;;;;;;;16.10;65.70;;;;;;5093680;28;19916;-71
2024/02/04 06:51:14;;;;;;;;;;;16.10;69.80;;;;;;5093725;28;19908;-71
2024/02/04 06:53:40;;;;;;;;;;;16.20;70.20;;;;;;5093695;28;19912;-71
2024/02/04 06:56:07;;;;;;;;;;;16.10;70.00;;;;;;5093265;28;20021;-72
2024/02/04 06:58:32;;;;;;;;;;;16.10;69.60;;;;;;5093081;28;19908;-71
2024/02/04 07:00:57;;;;;;;;;;;16.10;70.20;;;;;;5093380;28;19922;-71
2024/02/04 07:03:23;;;;;;;;;;;16.10;70.00;;;;;;5093308;28;20370;-72
2024/02/04 07:05:48;;;;;;;;;;;16.10;70.20;;;;;;5093352;28;19909;-71
2024/02/04 07:08:14;;;;;;;;;;;16.20;70.10;;;;;;5093229;28;19914;-71
2024/02/04 07:10:40;;;;;;;;;;;16.20;69.90;;;;;;5093810;28;19916;-71
2024/02/04 07:13:06;;;;;;;;;;;16.20;70.00;;;;;;5093178;28;19908;-71
2024/02/04 07:15:32;;;;;;;;;;;16.10;69.90;;;;;;5093167;28;19953;-71
2024/02/04 07:17:57;;;;;;;;;;;16.40;70.30;;;;;;5093175;28;19912;-71
2024/02/04 07:20:23;;;;;;;;;;;16.20;70.30;;;;;;5093012;28;19912;-71
2024/02/04 07:22:48;;;;;;;;;;;16.10;69.90;;;;;;5093102;28;19989;-72
2024/02/04 07:25:14;;;;;;;;;;;16.20;69.80;;;;;;5093122;28;19954;-71
2024/02/04 07:27:39;;;;;;;;;;;16.20;69.80;;;;;;5092970;28;19915;-71
2024/02/04 07:30:05;;;;;;;;;;;16.20;70.10;;;;;;5093154;28;19912;-71
2024/02/04 07:32:31;;;;;;;;;;;16.20;67.60;;;;;;5092800;28;20014;-71
2024/02/04 07:34:56;;;;;;;;;;;16.10;69.80;;;;;;5092844;28;20054;-72
2024/02/04 07:37:21;;;;;;;;;;;16.20;69.80;;;;;;5091518;28;20285;-71
2024/02/04 07:39:47;;;;;;;;;;;16.10;69.50;;;;;;5093095;28;19935;-71
2024/02/04 07:42:13;;;;;;;;;;;16.20;69.80;;;;;;5092603;28;19948;-71
2024/02/04 07:44:38;;;;;;;;;;;16.20;69.90;;;;;;5092757;28;19908;-70
2024/02/04 07:47:04;;;;;;;;;;;16.20;69.80;;;;;;5092748;28;19916;-71
2024/02/04 07:49:29;;;;;;;;;;;16.20;69.60;;;;;;5092496;28;19909;-70
2024/02/04 07:51:55;;;;;;;;;;;16.20;69.80;;;;;;5092697;28;19908;-71
2024/02/04 07:54:20;;;;;;;;;;;16.10;69.80;;;;;;5092704;28;19916;-71
2024/02/04 07:56:46;;;;;;;;;;;16.20;70.00;;;;;;5092732;28;20364;-71
2024/02/04 07:59:11;;;;;;;;;;;16.10;69.80;;;;;;5092571;28;19908;-69
2024/02/04 08:01:37;;;;;;;;;;;16.20;69.70;;;;;;5092446;28;19917;-70
2024/02/04 08:04:02;;;;;;;;;;;16.20;69.90;;;;;;5092489;28;19915;-69
2024/02/04 08:06:28;;;;;;;;;;;16.20;69.60;;;;;;5092515;28;20006;-72
2024/02/04 08:08:53;;;;;;;;;;;16.20;69.80;;;;;;5094517;28;20346;-72
2024/02/04 08:11:21;;;;;;;;;;;16.20;69.30;;;;;;5096741;28;20011;-72
2024/02/04 08:13:46;;;;;;;;;;;16.20;69.90;;;;;;5096548;28;20386;-72
2024/02/04 08:16:12;;;;;;;;;;;16.10;69.90;;;;;;5096578;28;19915;-71
2024/02/04 08:18:37;;;;;;;;;;;16.20;69.80;;;;;;5096589;28;19908;-71
2024/02/04 08:21:03;;;;;;;;;;;16.10;69.60;;;;;;5096315;28;20344;-72
2024/02/04 08:23:29;;;;;;;;;;;16.20;69.20;;;;;;5096430;28;19947;-71
2024/02/04 08:25:54;;;;;;;;;;;16.20;69.40;;;;;;5097188;28;20354;-69
2024/02/04 08:28:20;;;;;;;;;;;16.20;70.00;;;;;;5096154;28;19911;-68
2024/02/04 08:30:46;;;;;;;;;;;16.20;69.90;;;;;;5096224;28;20353;-69
2024/02/04 08:33:11;;;;;;;;;;;16.10;69.60;;;;;;5096204;28;19908;-69
2024/02/04 08:35:37;;;;;;;;;;;16.10;69.70;;;;;;5096131;28;20011;-69
2024/02/04 08:38:02;;;;;;;;;;;16.10;69.80;;;;;;5096200;28;19955;-68
2024/02/04 08:40:28;;;;;;;;;;;16.10;69.40;;;;;;5095995;28;19966;-68
2024/02/04 08:42:54;;;;;;;;;;;16.10;70.00;;;;;;5096193;28;20378;-68
2024/02/04 08:45:20;;;;;;;;;;;16.10;69.90;;;;;;5096144;28;19974;-68
2024/02/04 08:47:46;;;;;;;;;;;16.20;69.80;;;;;;5095700;28;20255;-68
2024/02/04 08:50:12;;;;;;;;;;;17.30;70.10;;;;;;5095733;28;19908;-69
2024/02/04 08:52:37;;;;;;;;;;;16.10;69.60;;;;;;5095835;28;19908;-68
2024/02/04 08:55:03;;;;;;;;;;;16.20;69.50;;;;;;5096287;28;20290;-79
2024/02/04 08:57:29;;;;;;;;;;;16.10;69.00;;;;;;5095802;28;19908;-78
2024/02/04 08:59:55;;;;;;;;;;;16.10;69.80;;;;;;5095506;28;19916;-78
2024/02/04 09:02:20;;;;;;;;;;;16.20;70.20;;;;;;5095523;28;19912;-79
2024/02/04 09:04:46;;;;;;;;;;;16.20;69.90;;;;;;5095518;28;19977;-79
2024/02/04 09:07:11;;;;;;;;;;;16.10;69.90;;;;;;5095857;28;19954;-79
2024/02/04 09:09:37;;;;;;;;;;;16.30;69.80;;;;;;5095562;28;19908;-79
2024/02/04 09:12:03;;;;;;;;;;;16.20;69.80;;;;;;5095503;28;19908;-77
2024/02/04 09:14:28;;;;;;;;;;;16.20;68.80;;;;;;5095359;28;19916;-78
2024/02/04 09:16:54;;;;;;;;;;;16.20;70.60;;;;;;5095339;28;19908;-80
2024/02/04 09:19:19;;;;;;;;;;;16.20;69.80;;;;;;5095084;28;20015;-82
2024/02/04 09:21:44;;;;;;;;;;;16.20;69.90;;;;;;5094880;28;20314;-82
2024/02/04 09:24:11;;;;;;;;;;;16.20;69.80;;;;;;5095602;28;19912;-80
2024/02/04 09:26:36;;;;;;;;;;;16.20;69.60;;;;;;5095470;28;19908;-80
2024/02/04 09:29:02;;;;;;;;;;;16.20;69.90;;;;;;5095083;28;19954;-82
2024/02/04 09:31:28;;;;;;;;;;;16.20;69.80;;;;;;5095061;28;19915;-84
2024/02/04 09:33:53;;;;;;;;;;;16.20;69.40;;;;;;5094909;28;19998;-81
2024/02/04 09:36:19;;;;;;;;;;;16.10;70.10;;;;;;5094850;28;20428;-79
2024/02/04 09:38:44;;;;;;;;;;;16.20;69.80;;;;;;5094835;28;19909;-77
2024/02/04 09:41:10;;;;;;;;;;;17.60;70.50;;;;;;5094517;28;20398;-77
2024/02/04 09:43:36;;;;;;;;;;;16.10;70.00;;;;;;5094824;28;19939;-77
2024/02/04 09:46:01;;;;;;;;;;;16.20;69.70;;;;;;5094697;28;19908;-75
2024/02/04 09:48:30;;;;;;;;;;;16.10;69.60;;;;;;5094737;28;19909;-76
2024/02/04 09:50:56;;;;;;;;;;;16.10;69.30;;;;;;5094567;28;20358;-76
2024/02/04 09:53:24;;;;;;;;;;;16.10;69.80;;;;;;5094516;28;19998;-75
2024/02/04 09:55:50;;;;;;;;;;;16.10;70.00;;;;;;5094479;28;19915;-77
2024/02/04 09:58:16;;;;;;;;;;;16.20;69.80;;;;;;5094418;28;19908;-77
2024/02/04 10:00:44;;;;;;;;;;;16.10;69.70;;;;;;5094442;28;19923;-75
2024/02/04 10:03:09;;;;;;;;;;;16.20;70.00;;;;;;5094644;28;19908;-68
2024/02/04 10:05:35;;;;;;;;;;;16.10;69.90;;;;;;5094152;28;20337;-68
2024/02/04 10:08:01;;;;;;;;;;;16.10;69.70;;;;;;5094139;28;19920;-68
2024/02/04 10:10:26;;;;;;;;;;;16.10;69.70;;;;;;5094072;28;19909;-68
2024/02/04 10:12:52;;;;;;;;;;;16.10;69.90;;;;;;5094047;28;20259;-69
2024/02/04 10:15:17;;;;;;;;;;;16.10;69.80;;;;;;5094178;28;19908;-70
2024/02/04 10:17:45;;;;;;;;;;;16.10;69.60;;;;;;5095917;28;19942;-71
2024/02/04 10:20:12;;;;;;;;;;;16.00;70.00;;;;;;5093904;28;20065;-71
2024/02/04 10:22:37;;;;;;;;;;;16.10;69.70;;;;;;5093983;28;19915;-70
2024/02/04 10:25:07;;;;;;;;;;;16.10;69.80;;;;;;5093805;28;19909;-71
2024/02/04 10:27:33;;;;;;;;;;;16.10;69.20;;;;;;5094013;28;19912;-71
2024/02/04 10:29:59;;;;;;;;;;;16.10;69.90;;;;;;5093789;28;20424;-69
2024/02/04 10:32:25;;;;;;;;;;;16.10;70.00;;;;;;5093577;28;20271;-69
2024/02/04 10:34:51;;;;;;;;;;;16.10;69.80;;;;;;5093682;28;19930;-71
2024/02/04 10:37:16;;;;;;;;;;;16.00;69.80;;;;;;5094165;28;20324;-71
2024/02/04 10:39:42;;;;;;;;;;;16.00;69.80;;;;;;5093423;28;19974;-71
2024/02/04 10:42:08;;;;;;;;;;;16.10;69.80;;;;;;5093518;28;20271;-70
2024/02/04 10:44:35;;;;;;;;;;;16.10;70.00;;;;;;5093426;28;19908;-70
2024/02/04 10:47:05;;;;;;;;;;;16.10;69.90;;;;;;5093792;28;19947;-70
2024/02/04 10:49:34;;;;;;;;;;;16.10;69.60;;;;;;5093389;28;19912;-70
2024/02/04 10:51:59;;;;;;;;;;;16.00;69.80;;;;;;5093392;28;19915;-70
2024/02/04 10:54:27;;;;;;;;;;;16.00;69.80;;;;;;5093223;28;19908;-70
2024/02/04 10:56:56;;;;;;;;;;;16.10;69.80;;;;;;5093284;28;19912;-70
2024/02/04 10:59:22;;;;;;;;;;;16.00;65.40;;;;;;5093422;28;20048;-70
2024/02/04 11:01:50;;;;;;;;;;;16.00;70.10;;;;;;5092933;28;20018;-70
2024/02/04 11:04:16;;;;;;;;;;;16.00;66.20;;;;;;5093366;28;20269;-69
2024/02/04 11:06:42;;;;;;;;;;;16.10;69.90;;;;;;5093196;28;19977;-69
2024/02/04 11:09:09;;;;;;;;;;;16.00;70.00;;;;;;5093094;28;19940;-69
2024/02/04 11:11:36;;;;;;;;;;;16.00;69.80;;;;;;5093042;28;19941;-69
2024/02/04 11:14:04;;;;;;;;;;;16.00;69.80;;;;;;5092896;28;19914;-69
2024/02/04 11:16:30;;;;;;;;;;;16.00;70.20;;;;;;5092810;28;20050;-70
2024/02/04 11:19:08;;;;;;;;;;;16.00;69.70;;;;;;5092927;28;19909;-70
2024/02/04 11:21:52;;;;;;;;;;;16.00;65.60;;;;;;5092712;28;19923;-70
2024/02/04 11:24:17;;;;;;;;;;;16.00;65.60;;;;;;5093044;28;19916;-71
2024/02/04 11:26:43;;;;;;;;;;;16.00;70.00;;;;;;5092763;28;19908;-76
2024/02/04 11:29:09;;;;;;;;;;;16.00;70.00;;;;;;5092574;28;20414;-73
2024/02/04 11:31:38;;;;;;;;;;;16.00;70.10;;;;;;5092648;28;19915;-75
2024/02/04 11:34:04;;;;;;;;;;;16.00;70.30;;;;;;5092663;28;19924;-73
2024/02/04 11:36:29;;;;;;;;;;;16.00;70.20;;;;;;5092547;28;19908;-74
2024/02/04 11:38:56;;;;;;;;;;;15.90;69.90;;;;;;5092543;28;19908;-75
2024/02/04 11:41:24;;;;;;;;;;;16.00;70.00;;;;;;5092246;28;19920;-75
2024/02/04 11:43:56;;;;;;;;;;;15.70;70.00;;;;;;5092029;28;19909;-73
2024/02/04 11:46:21;;;;;;;;;;;15.90;65.70;;;;;;5092639;28;19913;-75
2024/02/04 11:48:53;;;;;;;;;;;15.90;70.00;;;;;;5091164;28;19912;-74
2024/02/04 11:51:21;;;;;;;;;;;15.90;65.10;;;;;;5092426;28;19996;-74
2024/02/04 11:53:47;;;;;;;;;;;16.00;70.50;;;;;;5092561;28;19953;-76
2024/02/04 11:56:13;;;;;;;;;;;15.90;69.70;;;;;;5092320;28;19912;-74
2024/02/04 11:58:39;;;;;;;;;;;15.90;70.00;;;;;;5092278;28;19908;-75
2024/02/04 12:01:05;;;;;;;;;;;15.90;70.40;;;;;;5092236;28;19920;-75
2024/02/04 12:03:31;;;;;;;;;;;15.90;69.60;;;;;;5092307;28;19919;-77
2024/02/04 12:05:57;;;;;;;;;;;15.90;70.20;;;;;;5092241;28;20377;-77
2024/02/04 12:08:23;;;;;;;;;;;15.80;70.20;;;;;;5092337;28;19912;-82
2024/02/04 12:10:49;;;;;;;;;;;15.90;70.00;;;;;;5092276;28;19915;-76
2024/02/04 12:13:14;;;;;;;;;;;16.00;70.50;;;;;;5092336;28;19931;-74
2024/02/04 12:15:41;;;;;;;;;;;16.00;70.10;;;;;;5092122;28;20297;-75
2024/02/04 12:18:07;;;;;;;;;;;15.90;70.30;;;;;;5092240;28;19909;-77
2024/02/04 12:20:32;;;;;;;;;;;15.90;70.00;;;;;;5094069;28;19923;-74
2024/02/04 12:22:58;;;;;;;;;;;16.00;70.20;;;;;;5098270;28;19908;-77
2024/02/04 12:25:26;;;;;;;;;;;15.90;69.80;;;;;;5092022;28;19908;-77
2024/02/04 12:27:52;;;;;;;;;;;15.90;70.50;;;;;;5092282;28;19999;-77
2024/02/04 12:30:17;;;;;;;;;;;15.90;70.30;;;;;;5092108;28;20357;-75
2024/02/04 12:32:43;;;;;;;;;;;15.90;70.50;;;;;;5092108;28;19918;-78
2024/02/04 12:35:13;;;;;;;;;;;15.90;70.50;;;;;;5091921;28;19908;-76
2024/02/04 12:37:49;;;;;;;;;;;15.90;70.30;;;;;;5091749;28;19958;-82
2024/02/04 12:40:20;;;;;;;;;;;15.90;70.70;;;;;;5091815;28;19920;-77
2024/02/04 12:42:45;;;;;;;;;;;15.90;70.00;;;;;;5091939;28;19919;-76
2024/02/04 12:45:14;;;;;;;;;;;15.90;70.20;;;;;;5092031;28;19908;-79
2024/02/04 12:47:39;;;;;;;;;;;15.90;70.70;;;;;;5091730;28;19908;-77
2024/02/04 12:50:05;;;;;;;;;;;15.90;70.00;;;;;;5091741;28;19919;-78
2024/02/04 12:52:35;;;;;;;;;;;15.90;68.90;;;;;;5091711;28;19916;-80
2024/02/04 12:55:00;;;;;;;;;;;15.90;70.50;;;;;;5094020;28;19912;-80
2024/02/04 12:57:27;;;;;;;;;;;15.80;70.70;;;;;;5095536;28;20247;-79
2024/02/04 13:00:03;;;;;;;;;;;16.30;70.90;;;;;;5095607;28;20299;-77
2024/02/04 13:02:28;;;;;;;;;;;15.90;70.80;;;;;;5095351;28;20402;-78
2024/02/04 13:04:54;;;;;;;;;;;15.90;70.60;;;;;;5095617;28;19969;-78
2024/02/04 13:07:20;;;;;;;;;;;15.80;70.90;;;;;;5095328;28;20025;-77
2024/02/04 13:09:45;;;;;;;;;;;15.90;70.60;;;;;;5095248;28;19908;-76
2024/02/04 13:12:14;;;;;;;;;;;15.90;70.30;;;;;;5093947;28;19912;-77
2024/02/04 13:14:41;;;;;;;;;;;15.90;71.10;;;;;;5095243;28;20010;-77
2024/02/04 13:17:07;;;;;;;;;;;15.90;66.60;;;;;;5095409;28;19908;-77
2024/02/04 13:19:36;;;;;;;;;;;15.90;70.70;;;;;;5095257;28;19908;-76
2024/02/04 13:22:06;;;;;;;;;;;15.90;66.90;;;;;;5094964;28;19920;-77
2024/02/04 13:24:31;;;;;;;;;;;15.90;66.80;;;;;;5095369;28;19908;-77
2024/02/04 13:26:58;;;;;;;;;;;15.90;71.30;;;;;;5094837;28;19961;-77
2024/02/04 13:29:24;;;;;;;;;;;15.90;71.50;;;;;;5095237;28;19908;-77
2024/02/04 13:31:49;;;;;;;;;;;16.00;71.40;;;;;;5094951;28;19908;-78
2024/02/04 13:34:15;;;;;;;;;;;15.90;71.40;;;;;;5095248;28;19914;-79
2024/02/04 13:36:42;;;;;;;;;;;16.00;71.40;;;;;;5094135;28;20006;-79
2024/02/04 13:39:07;;;;;;;;;;;16.00;71.60;;;;;;5094700;28;19908;-77
2024/02/04 13:41:33;;;;;;;;;;;16.00;71.50;;;;;;5094733;28;19916;-79
2024/02/04 13:43:58;;;;;;;;;;;16.00;71.60;;;;;;5094758;28;19970;-79
2024/02/04 13:46:24;;;;;;;;;;;16.00;71.60;;;;;;5094890;28;19908;-79
2024/02/04 13:48:49;;;;;;;;;;;16.10;71.90;;;;;;5094666;28;20334;-79
2024/02/04 13:51:15;;;;;;;;;;;16.00;70.50;;;;;;5094530;28;19908;-79
2024/02/04 13:53:41;;;;;;;;;;;16.10;71.30;;;;;;5094692;28;20274;-77
2024/02/04 13:56:06;;;;;;;;;;;16.10;71.90;;;;;;5094793;28;19916;-76
2024/02/04 13:58:32;;;;;;;;;;;16.10;71.40;;;;;;5094329;28;19966;-76
2024/02/04 14:00:58;;;;;;;;;;;16.10;71.60;;;;;;5094360;28;19927;-76
2024/02/04 14:03:24;;;;;;;;;;;16.10;71.70;;;;;;5094699;28;19935;-76
2024/02/04 14:05:50;;;;;;;;;;;16.10;71.70;;;;;;5093800;28;20263;-76
2024/02/04 14:08:15;;;;;;;;;;;16.20;71.40;;;;;;5094264;28;19908;-76
2024/02/04 14:10:41;;;;;;;;;;;16.20;71.90;;;;;;5094238;28;19912;-76